Time;durP1;ratioP1;P1;durP2;ratioP2;P2;SDS_P1;SDS_P2;PMS_P1;PMS_P2;Temp;Humidity;BMP_temperature;BMP_pressure;BME280_temperature;BME280_humidity;BME280_pressure;Samples;Min_cycle;Max_cycle;Signal;HPM_P1;HPM_P2
2024/01/29 00:01:14;;;;;;;3.92;2.58;;;;;;;;;;5262594;28;20384;-80
2024/01/29 00:03:46;;;;;;;3.92;2.55;;;;;;;;;;5262602;28;20349;-80
2024/01/29 00:06:17;;;;;;;5.15;2.60;;;;;;;;;;5261744;28;20464;-80
2024/01/29 00:08:52;;;;;;;4.95;2.45;;;;;;;;;;5262626;28;20032;-80
2024/01/29 00:11:24;;;;;;;4.35;2.03;;;;;;;;;;5262273;28;20021;-80
2024/01/29 00:13:55;;;;;;;4.22;2.50;;;;;;;;;;5262199;28;20071;-80
2024/01/29 00:16:27;;;;;;;3.67;2.22;;;;;;;;;;5261985;28;20059;-80
2024/01/29 00:18:59;;;;;;;4.93;2.65;;;;;;;;;;5262274;28;20017;-80
2024/01/29 00:21:30;;;;;;;5.43;2.55;;;;;;;;;;5261533;28;20357;-80
2024/01/29 00:24:02;;;;;;;4.40;2.53;;;;;;;;;;5262197;28;20100;-80
2024/01/29 00:26:33;;;;;;;4.38;2.33;;;;;;;;;;5261998;28;20406;-81
2024/01/29 00:29:04;;;;;;;4.90;2.38;;;;;;;;;;5261301;28;20520;-82
2024/01/29 00:31:35;;;;;;;4.95;2.70;;;;;;;;;;5262189;28;20048;-81
2024/01/29 00:34:06;;;;;;;5.63;2.53;;;;;;;;;;5261203;28;20036;-81
2024/01/29 00:36:37;;;;;;;4.18;1.90;;;;;;;;;;5261993;28;20056;-81
2024/01/29 00:39:09;;;;;;;4.78;2.30;;;;;;;;;;5262079;28;20506;-81
2024/01/29 00:41:40;;;;;;;4.18;2.22;;;;;;;;;;5260232;28;20025;-81
2024/01/29 00:44:11;;;;;;;3.90;2.67;;;;;;;;;;5261663;28;20487;-81
2024/01/29 00:46:43;;;;;;;4.18;2.60;;;;;;;;;;5261913;28;20139;-81
2024/01/29 00:49:14;;;;;;;5.45;2.42;;;;;;;;;;5261152;28;20384;-81
2024/01/29 00:51:45;;;;;;;3.58;2.08;;;;;;;;;;5261526;28;20037;-81
2024/01/29 00:54:18;;;;;;;4.22;1.83;;;;;;;;;;5261479;28;20461;-81
2024/01/29 00:56:49;;;;;;;3.95;2.25;;;;;;;;;;5260781;28;20049;-81
2024/01/29 00:59:20;;;;;;;4.20;2.28;;;;;;;;;;5261718;28;20372;-81
2024/01/29 01:01:51;;;;;;;5.57;2.40;;;;;;;;;;5261096;28;20088;-81
2024/01/29 01:04:23;;;;;;;4.90;2.03;;;;;;;;;;5261026;28;20032;-81
2024/01/29 01:06:54;;;;;;;4.80;2.63;;;;;;;;;;5261773;28;20025;-81
2024/01/29 01:09:25;;;;;;;4.38;1.92;;;;;;;;;;5260524;28;20012;-80
2024/01/29 01:11:56;;;;;;;4.55;2.15;;;;;;;;;;5261505;28;20369;-80
2024/01/29 01:14:28;;;;;;;3.92;2.05;;;;;;;;;;5261288;28;20017;-81
2024/01/29 01:16:59;;;;;;;4.05;2.00;;;;;;;;;;5260461;28;20025;-81
2024/01/29 01:19:30;;;;;;;4.60;2.13;;;;;;;;;;5261532;28;20377;-80
2024/01/29 01:22:01;;;;;;;3.63;1.90;;;;;;;;;;5261363;28;20051;-80
2024/01/29 01:24:32;;;;;;;3.70;1.75;;;;;;;;;;5260565;28;20119;-81
2024/01/29 01:27:04;;;;;;;3.10;1.67;;;;;;;;;;5261189;28;20459;-80
2024/01/29 01:29:35;;;;;;;2.75;1.75;;;;;;;;;;5261061;28;20488;-80
2024/01/29 01:32:06;;;;;;;3.17;1.80;;;;;;;;;;5260575;28;20083;-80
2024/01/29 01:34:37;;;;;;;4.70;1.70;;;;;;;;;;5261396;28;20017;-80
2024/01/29 01:37:08;;;;;;;3.20;2.03;;;;;;;;;;5260446;28;20025;-80
2024/01/29 01:39:40;;;;;;;6.25;2.55;;;;;;;;;;5262295;28;20035;-80
2024/01/29 01:42:11;;;;;;;4.60;2.22;;;;;;;;;;5260966;28;20017;-80
2024/01/29 01:44:42;;;;;;;3.85;2.00;;;;;;;;;;5260530;28;20025;-80
2024/01/29 01:47:13;;;;;;;4.22;2.38;;;;;;;;;;5260925;28;20021;-80
2024/01/29 01:49:45;;;;;;;2.97;1.80;;;;;;;;;;5260890;28;20017;-80
2024/01/29 01:52:17;;;;;;;3.97;2.25;;;;;;;;;;5259474;28;20064;-80
2024/01/29 01:54:49;;;;;;;5.28;2.22;;;;;;;;;;5260631;28;20492;-80
2024/01/29 01:57:20;;;;;;;3.67;2.10;;;;;;;;;;5261069;28;20048;-80
2024/01/29 01:59:51;;;;;;;2.70;1.85;;;;;;;;;;5260294;28;20096;-80
2024/01/29 02:02:23;;;;;;;5.35;2.53;;;;;;;;;;5260344;28;20017;-80
2024/01/29 02:04:54;;;;;;;3.58;2.10;;;;;;;;;;5261008;28;20457;-80
2024/01/29 02:07:25;;;;;;;4.15;2.25;;;;;;;;;;5259646;28;20075;-80
2024/01/29 02:09:56;;;;;;;4.40;2.00;;;;;;;;;;5260896;28;20036;-80
2024/01/29 02:12:27;;;;;;;6.55;2.28;;;;;;;;;;5259722;28;20044;-80
2024/01/29 02:14:59;;;;;;;5.05;2.47;;;;;;;;;;5260535;28;20029;-80
2024/01/29 02:17:30;;;;;;;3.72;2.10;;;;;;;;;;5260513;28;20112;-80
2024/01/29 02:20:01;;;;;;;3.50;2.33;;;;;;;;;;5260103;28;20021;-80
2024/01/29 02:22:32;;;;;;;4.13;2.05;;;;;;;;;;5260720;28;20047;-80
2024/01/29 02:25:04;;;;;;;3.67;2.03;;;;;;;;;;5260623;28;20025;-80
2024/01/29 02:27:35;;;;;;;4.88;2.20;;;;;;;;;;5259767;28;20103;-80
2024/01/29 02:30:06;;;;;;;3.72;1.73;;;;;;;;;;5260316;28;20021;-80
2024/01/29 02:32:38;;;;;;;4.38;2.20;;;;;;;;;;5260436;28;20037;-79
2024/01/29 02:35:09;;;;;;;3.97;1.85;;;;;;;;;;5259707;28;20043;-80
2024/01/29 02:37:40;;;;;;;3.17;1.75;;;;;;;;;;5260391;28;20074;-80
2024/01/29 02:40:11;;;;;;;3.08;1.65;;;;;;;;;;5260195;28;20090;-80
2024/01/29 02:42:42;;;;;;;3.42;1.92;;;;;;;;;;5259440;28;20532;-80
2024/01/29 02:45:14;;;;;;;2.90;1.73;;;;;;;;;;5260415;28;20043;-80
2024/01/29 02:47:45;;;;;;;2.78;1.58;;;;;;;;;;5259631;28;20032;-80
2024/01/29 02:50:16;;;;;;;2.65;1.52;;;;;;;;;;5260321;28;20029;-80
2024/01/29 02:52:47;;;;;;;4.00;1.92;;;;;;;;;;5260011;28;20079;-80
2024/01/29 02:55:18;;;;;;;2.85;1.95;;;;;;;;;;5259255;28;20041;-80
2024/01/29 02:57:50;;;;;;;3.70;1.88;;;;;;;;;;5260046;28;20040;-80
2024/01/29 03:00:21;;;;;;;3.08;1.70;;;;;;;;;;5259947;28;20453;-80
2024/01/29 03:02:52;;;;;;;4.43;2.10;;;;;;;;;;5259847;28;20029;-80
2024/01/29 03:05:24;;;;;;;3.35;1.70;;;;;;;;;;5262832;28;20051;-81
2024/01/29 03:07:55;;;;;;;3.65;2.08;;;;;;;;;;5264082;28;20111;-80
2024/01/29 03:10:26;;;;;;;4.32;2.20;;;;;;;;;;5262773;28;20095;-80
2024/01/29 03:12:57;;;;;;;5.25;2.80;;;;;;;;;;5263863;28;20033;-80
2024/01/29 03:15:29;;;;;;;4.63;2.33;;;;;;;;;;5263306;28;20096;-80
2024/01/29 03:18:00;;;;;;;4.53;2.72;;;;;;;;;;5263641;28;20039;-80
2024/01/29 03:20:31;;;;;;;5.72;3.60;;;;;;;;;;5263931;28;20036;-80
2024/01/29 03:23:02;;;;;;;3.95;3.10;;;;;;;;;;5263038;28;20017;-80
2024/01/29 03:25:34;;;;;;;4.70;2.92;;;;;;;;;;5263645;28;20032;-77
2024/01/29 03:28:05;;;;;;;7.07;3.10;;;;;;;;;;5263554;28;20102;-78
2024/01/29 03:30:36;;;;;;;5.55;3.28;;;;;;;;;;5262797;28;20020;-78
2024/01/29 03:33:07;;;;;;;5.57;2.53;;;;;;;;;;5263245;28;20057;-77
2024/01/29 03:35:38;;;;;;;4.45;2.50;;;;;;;;;;5263300;28;20028;-77
2024/01/29 03:38:10;;;;;;;5.07;3.28;;;;;;;;;;5262611;28;20064;-77
2024/01/29 03:40:41;;;;;;;5.82;3.00;;;;;;;;;;5262981;28;20028;-77
2024/01/29 03:43:12;;;;;;;4.65;2.40;;;;;;;;;;5262980;28;20460;-78
2024/01/29 03:45:43;;;;;;;6.32;2.42;;;;;;;;;;5262346;28;20025;-77
2024/01/29 03:48:14;;;;;;;5.15;2.60;;;;;;;;;;5263268;28;20028;-78
2024/01/29 03:50:46;;;;;;;3.97;1.98;;;;;;;;;;5262146;28;20051;-77
2024/01/29 03:53:17;;;;;;;4.35;2.03;;;;;;;;;;5262714;28;20037;-77
2024/01/29 03:55:48;;;;;;;3.72;1.80;;;;;;;;;;5262683;28;20041;-77
2024/01/29 03:58:20;;;;;;;4.35;1.90;;;;;;;;;;5262147;28;20033;-77
2024/01/29 04:00:51;;;;;;;8.23;2.40;;;;;;;;;;5262760;28;20092;-77
2024/01/29 04:03:22;;;;;;;5.50;2.58;;;;;;;;;;5262408;28;20021;-77
2024/01/29 04:05:53;;;;;;;5.32;2.30;;;;;;;;;;5262097;28;20025;-78
2024/01/29 04:08:25;;;;;;;3.78;2.08;;;;;;;;;;5262244;28;20025;-78
2024/01/29 04:10:56;;;;;;;4.68;2.25;;;;;;;;;;5262919;28;20028;-77
2024/01/29 04:13:27;;;;;;;3.58;1.70;;;;;;;;;;5261506;28;20106;-77
2024/01/29 04:15:58;;;;;;;5.53;2.15;;;;;;;;;;5262298;28;20456;-77
2024/01/29 04:18:30;;;;;;;3.58;1.75;;;;;;;;;;5262244;28;20099;-77
2024/01/29 04:21:05;;;;;;;4.00;1.95;;;;;;;;;;5261621;28;20456;-76
2024/01/29 04:23:36;;;;;;;5.15;2.25;;;;;;;;;;5262259;28;20032;-77
2024/01/29 04:26:07;;;;;;;4.68;1.67;;;;;;;;;;5261568;28;20021;-76
2024/01/29 04:28:38;;;;;;;3.00;1.52;;;;;;;;;;5262103;28;20031;-77
2024/01/29 04:31:10;;;;;;;4.10;1.80;;;;;;;;;;5262364;28;20024;-77
2024/01/29 04:33:42;;;;;;;4.47;1.83;;;;;;;;;;5261420;28;20017;-77
2024/01/29 04:36:15;;;;;;;3.20;1.60;;;;;;;;;;5262088;28;20024;-77
2024/01/29 04:38:49;;;;;;;2.65;1.85;;;;;;;;;;5261858;28;20048;-77
2024/01/29 04:41:21;;;;;;;3.53;1.60;;;;;;;;;;5261196;28;20009;-77
2024/01/29 04:43:52;;;;;;;5.47;1.95;;;;;;;;;;5262451;28;20422;-76
2024/01/29 04:46:23;;;;;;;4.10;1.80;;;;;;;;;;5261969;28;20024;-76
2024/01/29 04:48:55;;;;;;;3.30;1.83;;;;;;;;;;5261835;28;20025;-76
2024/01/29 04:51:26;;;;;;;3.33;1.48;;;;;;;;;;5261649;28;20037;-76
2024/01/29 04:53:57;;;;;;;3.58;1.70;;;;;;;;;;5261022;28;20013;-76
2024/01/29 04:56:29;;;;;;;3.45;1.70;;;;;;;;;;5261259;28;20127;-76
2024/01/29 04:59:00;;;;;;;3.35;1.73;;;;;;;;;;5261684;28;20100;-76
2024/01/29 05:01:31;;;;;;;4.88;1.80;;;;;;;;;;5261045;28;20020;-76
2024/01/29 05:04:02;;;;;;;2.75;1.58;;;;;;;;;;5261554;28;20429;-77
2024/01/29 05:06:33;;;;;;;4.13;1.90;;;;;;;;;;5261600;28;20028;-76
2024/01/29 05:09:04;;;;;;;3.47;1.83;;;;;;;;;;5261159;28;20024;-76
2024/01/29 05:11:37;;;;;;;3.65;1.80;;;;;;;;;;5261550;28;20059;-76
2024/01/29 05:14:08;;;;;;;4.30;1.67;;;;;;;;;;5261621;28;20041;-76
2024/01/29 05:16:39;;;;;;;3.55;1.70;;;;;;;;;;5260580;28;20067;-76
2024/01/29 05:19:10;;;;;;;3.13;1.63;;;;;;;;;;5261607;28;20022;-76
2024/01/29 05:21:42;;;;;;;3.00;1.90;;;;;;;;;;5261430;28;20033;-77
2024/01/29 05:24:13;;;;;;;3.58;1.90;;;;;;;;;;5260666;28;20028;-76
2024/01/29 05:26:44;;;;;;;4.88;2.05;;;;;;;;;;5260708;28;20021;-77
2024/01/29 05:29:15;;;;;;;3.47;1.95;;;;;;;;;;5260253;28;20020;-77
2024/01/29 05:31:46;;;;;;;3.10;2.00;;;;;;;;;;5261273;28;20468;-76
2024/01/29 05:34:17;;;;;;;3.28;1.94;;;;;;;;;;5261088;28;20021;-76
2024/01/29 05:36:49;;;;;;;4.05;2.40;;;;;;;;;;5260258;28;20024;-77
2024/01/29 05:39:20;;;;;;;4.82;2.30;;;;;;;;;;5260791;28;20021;-77
2024/01/29 05:41:51;;;;;;;5.13;2.10;;;;;;;;;;5261142;28;20104;-77
2024/01/29 05:44:22;;;;;;;3.90;2.17;;;;;;;;;;5260265;28;20029;-78
2024/01/29 05:46:53;;;;;;;3.88;1.90;;;;;;;;;;5261367;28;20025;-77
2024/01/29 05:49:24;;;;;;;3.72;2.03;;;;;;;;;;5260400;28;20048;-77
2024/01/29 05:51:56;;;;;;;4.32;1.73;;;;;;;;;;5259991;28;20549;-77
2024/01/29 05:54:28;;;;;;;3.42;2.25;;;;;;;;;;5260333;28;20036;-75
2024/01/29 05:56:59;;;;;;;4.68;1.80;;;;;;;;;;5260692;28;20067;-77
2024/01/29 05:59:30;;;;;;;3.65;1.65;;;;;;;;;;5260067;28;20407;-77
2024/01/29 06:02:02;;;;;;;3.80;2.20;;;;;;;;;;5260852;28;20025;-77
2024/01/29 06:04:33;;;;;;;4.07;2.20;;;;;;;;;;5258909;28;20037;-76
2024/01/29 06:07:05;;;;;;;3.00;1.75;;;;;;;;;;5260765;28;20489;-77
2024/01/29 06:09:36;;;;;;;5.72;2.10;;;;;;;;;;5260307;28;20100;-77
2024/01/29 06:12:08;;;;;;;5.07;1.77;;;;;;;;;;5259738;28;20532;-77
2024/01/29 06:14:39;;;;;;;5.38;2.88;;;;;;;;;;5260671;28;20132;-77
2024/01/29 06:17:10;;;;;;;3.55;1.60;;;;;;;;;;5260557;28;20032;-77
2024/01/29 06:19:41;;;;;;;3.55;2.17;;;;;;;;;;5259766;28;20024;-77
2024/01/29 06:22:12;;;;;;;4.68;1.83;;;;;;;;;;5260724;28;20430;-77
2024/01/29 06:24:43;;;;;;;2.70;1.30;;;;;;;;;;5260508;28;20025;-77
2024/01/29 06:27:15;;;;;;;3.80;1.67;;;;;;;;;;5259734;28;20025;-77
2024/01/29 06:29:46;;;;;;;3.10;1.50;;;;;;;;;;5260507;28;20020;-77
2024/01/29 06:32:17;;;;;;;2.90;1.88;;;;;;;;;;5260637;28;20482;-76
2024/01/29 06:34:50;;;;;;;3.53;1.52;;;;;;;;;;5259942;28;20017;-77
2024/01/29 06:37:21;;;;;;;2.92;1.52;;;;;;;;;;5261177;28;20100;-77
2024/01/29 06:39:52;;;;;;;2.72;1.50;;;;;;;;;;5262487;28;20108;-77
2024/01/29 06:42:23;;;;;;;4.05;1.73;;;;;;;;;;5263803;28;20370;-77
2024/01/29 06:44:56;;;;;;;2.78;1.60;;;;;;;;;;5264643;28;20518;-76
2024/01/29 06:47:27;;;;;;;3.55;1.60;;;;;;;;;;5263159;28;20017;-77
2024/01/29 06:49:58;;;;;;;2.97;1.42;;;;;;;;;;5264160;28;20468;-76
2024/01/29 06:52:30;;;;;;;3.03;1.60;;;;;;;;;;5263993;28;20039;-77
2024/01/29 06:55:01;;;;;;;3.75;1.63;;;;;;;;;;5263612;28;20128;-77
2024/01/29 06:57:32;;;;;;;3.47;1.90;;;;;;;;;;5266419;28;20017;-78
2024/01/29 07:00:03;;;;;;;3.62;1.86;;;;;;;;;;5264189;28;20096;-77
2024/01/29 07:02:35;;;;;;;2.72;1.60;;;;;;;;;;5263202;28;20020;-77
2024/01/29 07:05:06;;;;;;;2.65;1.35;;;;;;;;;;5263765;28;20029;-77
2024/01/29 07:07:37;;;;;;;3.78;1.58;;;;;;;;;;5263339;28;20013;-77
2024/01/29 07:10:09;;;;;;;4.13;1.70;;;;;;;;;;5264019;28;20029;-77
2024/01/29 07:12:40;;;;;;;4.13;1.60;;;;;;;;;;5263705;28;20028;-77
2024/01/29 07:15:12;;;;;;;3.60;1.75;;;;;;;;;;5262958;28;20104;-77
2024/01/29 07:17:43;;;;;;;3.58;1.45;;;;;;;;;;5263682;28;20032;-77
2024/01/29 07:20:15;;;;;;;5.03;2.00;;;;;;;;;;5263529;28;20017;-77
2024/01/29 07:22:46;;;;;;;3.65;1.73;;;;;;;;;;5262827;28;20029;-77
2024/01/29 07:25:17;;;;;;;3.10;1.65;;;;;;;;;;5265218;28;20052;-77
2024/01/29 07:27:48;;;;;;;3.58;1.70;;;;;;;;;;5265442;28;20028;-78
2024/01/29 07:30:20;;;;;;;4.03;1.90;;;;;;;;;;5267360;28;20100;-78
2024/01/29 07:32:51;;;;;;;3.90;1.50;;;;;;;;;;5265005;28;20119;-78
2024/01/29 07:35:22;;;;;;;2.70;1.20;;;;;;;;;;5266637;28;20083;-77
2024/01/29 07:37:53;;;;;;;3.05;1.48;;;;;;;;;;5265828;28;20060;-78
2024/01/29 07:40:24;;;;;;;3.00;1.15;;;;;;;;;;5268835;28;20048;-78
2024/01/29 07:42:55;;;;;;;3.33;1.90;;;;;;;;;;5264130;28;20350;-78
2024/01/29 07:45:27;;;;;;;2.55;1.50;;;;;;;;;;5264095;28;20024;-77
2024/01/29 07:47:59;;;;;;;2.47;1.55;;;;;;;;;;5264454;28;20016;-77
2024/01/29 07:50:31;;;;;;;4.18;1.55;;;;;;;;;;5261696;28;20021;-80
2024/01/29 07:53:03;;;;;;;2.25;1.10;;;;;;;;;;5263068;28;20047;-78
2024/01/29 07:55:34;;;;;;;3.30;1.73;;;;;;;;;;5262210;28;20480;-78
2024/01/29 07:58:08;;;;;;;3.28;1.58;;;;;;;;;;5261730;28;20140;-79
2024/01/29 08:00:39;;;;;;;3.67;1.75;;;;;;;;;;5262721;28;20017;-79
2024/01/29 08:03:10;;;;;;;3.25;1.30;;;;;;;;;;5262757;28;20464;-76
2024/01/29 08:05:41;;;;;;;3.42;2.03;;;;;;;;;;5261861;28;20452;-78
2024/01/29 08:08:13;;;;;;;4.55;1.70;;;;;;;;;;5263000;28;20017;-79
2024/01/29 08:10:44;;;;;;;3.20;1.90;;;;;;;;;;5262788;28;20025;-78
2024/01/29 08:13:15;;;;;;;4.07;1.67;;;;;;;;;;5261461;28;20029;-78
2024/01/29 08:15:47;;;;;;;4.68;1.67;;;;;;;;;;5262581;28;20017;-78
2024/01/29 08:18:18;;;;;;;2.70;1.83;;;;;;;;;;5261958;28;20040;-78
2024/01/29 08:20:49;;;;;;;4.32;2.08;;;;;;;;;;5262614;28;20013;-79
2024/01/29 08:23:20;;;;;;;2.92;1.48;;;;;;;;;;5262434;28;20046;-78
2024/01/29 08:25:51;;;;;;;3.42;1.65;;;;;;;;;;5264321;28;20088;-78
2024/01/29 08:28:23;;;;;;;2.63;1.45;;;;;;;;;;5262427;28;20029;-79
2024/01/29 08:30:58;;;;;;;3.13;2.08;;;;;;;;;;5262429;28;20021;-79
2024/01/29 08:33:30;;;;;;;3.00;1.80;;;;;;;;;;5261025;28;20035;-79
2024/01/29 08:36:01;;;;;;;4.10;1.90;;;;;;;;;;5262471;28;20512;-80
2024/01/29 08:38:32;;;;;;;4.57;2.00;;;;;;;;;;5262080;28;20108;-79
2024/01/29 08:41:04;;;;;;;3.83;1.83;;;;;;;;;;5261270;28;20419;-80
2024/01/29 08:43:35;;;;;;;3.60;1.77;;;;;;;;;;5261796;28;20063;-75
2024/01/29 08:46:06;;;;;;;5.03;2.45;;;;;;;;;;5260851;28;20453;-76
2024/01/29 08:48:37;;;;;;;5.32;1.92;;;;;;;;;;5261867;28;20384;-77
2024/01/29 08:51:08;;;;;;;2.78;1.80;;;;;;;;;;5261785;28;20044;-81
2024/01/29 08:53:40;;;;;;;3.53;1.88;;;;;;;;;;5261150;28;20040;-80
2024/01/29 08:56:12;;;;;;;3.90;2.05;;;;;;;;;;5261466;28;20041;-80
2024/01/29 08:58:43;;;;;;;3.05;1.80;;;;;;;;;;5261229;28;20033;-80
2024/01/29 09:01:15;;;;;;;2.50;1.60;;;;;;;;;;5259970;28;20021;-80
2024/01/29 09:03:46;;;;;;;4.60;2.00;;;;;;;;;;5261466;28;20020;-80
2024/01/29 09:06:17;;;;;;;3.58;1.65;;;;;;;;;;5261418;28;20632;-80
2024/01/29 09:08:48;;;;;;;3.60;2.03;;;;;;;;;;5260830;28;20369;-80
2024/01/29 09:11:19;;;;;;;2.92;1.63;;;;;;;;;;5261481;28;20150;-80
2024/01/29 09:13:51;;;;;;;4.64;1.94;;;;;;;;;;5261335;28;20384;-80
2024/01/29 09:16:22;;;;;;;4.85;2.05;;;;;;;;;;5260218;28;20366;-77
2024/01/29 09:18:53;;;;;;;3.97;2.10;;;;;;;;;;5261945;28;20341;-77
2024/01/29 09:21:25;;;;;;;3.35;2.45;;;;;;;;;;5260006;28;20021;-76
2024/01/29 09:23:56;;;;;;;3.17;1.80;;;;;;;;;;5261324;28;20476;-80
2024/01/29 09:26:27;;;;;;;3.42;1.88;;;;;;;;;;5260894;28;20017;-80
2024/01/29 09:28:59;;;;;;;4.85;2.38;;;;;;;;;;5260177;28;20021;-80
2024/01/29 09:31:30;;;;;;;3.28;1.92;;;;;;;;;;5261242;28;20021;-80
2024/01/29 09:34:03;;;;;;;3.88;2.28;;;;;;;;;;5261416;28;20025;-80
2024/01/29 09:36:34;;;;;;;3.30;1.50;;;;;;;;;;5262276;28;20017;-80
2024/01/29 09:39:06;;;;;;;3.15;2.25;;;;;;;;;;5260990;28;20025;-80
2024/01/29 09:41:38;;;;;;;3.13;1.80;;;;;;;;;;5260692;28;20043;-80
2024/01/29 09:44:10;;;;;;;2.80;1.95;;;;;;;;;;5260018;28;20071;-80
2024/01/29 09:46:41;;;;;;;4.32;1.92;;;;;;;;;;5260928;28;20041;-80
2024/01/29 09:49:12;;;;;;;5.47;2.00;;;;;;;;;;5260984;28;20372;-80
2024/01/29 09:51:46;;;;;;;5.20;2.53;;;;;;;;;;5260319;28;20028;-80
2024/01/29 09:54:17;;;;;;;3.97;1.73;;;;;;;;;;5260999;28;20173;-80
2024/01/29 09:56:48;;;;;;;4.72;2.60;;;;;;;;;;5259847;28;20080;-80
2024/01/29 09:59:19;;;;;;;6.45;2.20;;;;;;;;;;5260623;28;20029;-80
2024/01/29 10:01:50;;;;;;;4.60;2.90;;;;;;;;;;5260868;28;20380;-80
2024/01/29 10:04:22;;;;;;;4.74;2.42;;;;;;;;;;5259523;28;20021;-80
2024/01/29 10:06:53;;;;;;;3.20;2.22;;;;;;;;;;5261087;28;20028;-80
2024/01/29 10:09:24;;;;;;;3.35;2.10;;;;;;;;;;5260372;28;20025;-80
2024/01/29 10:11:55;;;;;;;4.88;2.35;;;;;;;;;;5260459;28;20468;-80
2024/01/29 10:14:27;;;;;;;4.68;2.72;;;;;;;;;;5269710;28;20001;-79
2024/01/29 10:16:58;;;;;;;3.80;2.92;;;;;;;;;;5267095;28;20045;-80
2024/01/29 10:19:35;;;;;;;5.28;3.53;;;;;;;;;;5264364;28;20017;-79
2024/01/29 10:22:13;;;;;;;4.88;2.67;;;;;;;;;;5264717;28;20139;-80
2024/01/29 10:24:44;;;;;;;6.13;3.15;;;;;;;;;;5264091;28;20099;-80
2024/01/29 10:27:15;;;;;;;3.97;2.25;;;;;;;;;;5264693;28;20020;-80
2024/01/29 10:29:49;;;;;;;5.04;2.52;;;;;;;;;;5264637;28;20456;-79
2024/01/29 10:32:21;;;;;;;4.95;3.05;;;;;;;;;;5263493;28;20041;-78
2024/01/29 10:34:52;;;;;;;4.25;2.88;;;;;;;;;;5264706;28;20013;-79
2024/01/29 10:37:25;;;;;;;4.82;2.70;;;;;;;;;;5264679;28;20048;-77
2024/01/29 10:39:58;;;;;;;3.58;2.38;;;;;;;;;;5264019;28;20368;-79
2024/01/29 10:42:29;;;;;;;4.20;2.35;;;;;;;;;;5264183;28;20031;-79
2024/01/29 10:45:01;;;;;;;4.68;2.60;;;;;;;;;;5264389;28;20384;-79
2024/01/29 10:47:33;;;;;;;3.33;2.65;;;;;;;;;;5263233;28;20166;-81
2024/01/29 10:50:05;;;;;;;3.72;2.97;;;;;;;;;;5264060;28;20017;-80
2024/01/29 10:52:36;;;;;;;6.03;3.17;;;;;;;;;;5263926;28;20435;-80
2024/01/29 10:55:10;;;;;;;5.60;3.20;;;;;;;;;;5263892;28;20091;-80
2024/01/29 10:57:44;;;;;;;4.57;2.70;;;;;;;;;;5264199;28;20025;-80
2024/01/29 11:00:18;;;;;;;4.63;2.85;;;;;;;;;;5263136;28;20032;-80
2024/01/29 11:02:49;;;;;;;5.03;3.25;;;;;;;;;;5256143;28;20025;-80
2024/01/29 11:05:21;;;;;;;4.30;2.53;;;;;;;;;;5264058;28;20028;-79
2024/01/29 11:07:54;;;;;;;4.57;3.17;;;;;;;;;;5263673;28;20108;-80
2024/01/29 11:10:27;;;;;;;5.38;3.40;;;;;;;;;;5263169;28;20552;-80
2024/01/29 11:12:59;;;;;;;4.28;3.15;;;;;;;;;;5263769;28;20116;-80
2024/01/29 11:15:31;;;;;;;3.65;2.83;;;;;;;;;;5262493;28;20109;-80
2024/01/29 11:18:03;;;;;;;4.45;2.45;;;;;;;;;;5263884;28;20021;-81
2024/01/29 11:20:38;;;;;;;3.17;2.15;;;;;;;;;;5263575;28;20029;-80
2024/01/29 11:23:10;;;;;;;4.43;2.72;;;;;;;;;;5263173;28;20010;-78
2024/01/29 11:25:41;;;;;;;4.40;3.28;;;;;;;;;;5262759;28;20074;-79
2024/01/29 11:28:12;;;;;;;5.32;3.22;;;;;;;;;;5262697;28;20087;-79
2024/01/29 11:30:50;;;;;;;3.83;3.00;;;;;;;;;;5263503;28;20017;-79
2024/01/29 11:33:22;;;;;;;5.18;3.42;;;;;;;;;;5263042;28;20434;-79
2024/01/29 11:35:56;;;;;;;4.05;3.53;;;;;;;;;;5262622;28;20013;-79
2024/01/29 11:38:27;;;;;;;3.88;3.10;;;;;;;;;;5262859;28;20053;-79
2024/01/29 11:41:00;;;;;;;4.43;3.63;;;;;;;;;;5262151;28;20029;-79
2024/01/29 11:43:34;;;;;;;4.47;3.25;;;;;;;;;;5261003;28;20023;-79
2024/01/29 11:46:06;;;;;;;6.30;3.92;;;;;;;;;;5254152;28;20415;-79
2024/01/29 11:48:38;;;;;;;5.45;3.83;;;;;;;;;;5262796;28;20025;-79
2024/01/29 11:51:09;;;;;;;6.68;3.40;;;;;;;;;;5261682;28;20017;-77
2024/01/29 11:53:41;;;;;;;5.15;3.40;;;;;;;;;;5263209;28;20094;-80
2024/01/29 11:56:12;;;;;;;3.55;3.17;;;;;;;;;;5249868;28;20045;-79
2024/01/29 11:58:43;;;;;;;5.88;3.97;;;;;;;;;;5262772;28;20100;-79
2024/01/29 12:01:15;;;;;;;4.68;3.10;;;;;;;;;;5264220;28;20024;-78
2024/01/29 12:03:48;;;;;;;4.35;3.33;;;;;;;;;;5267159;28;20017;-80
2024/01/29 12:06:20;;;;;;;5.13;3.67;;;;;;;;;;5265784;28;20020;-79
2024/01/29 12:08:53;;;;;;;4.28;3.13;;;;;;;;;;5261730;28;20433;-79
2024/01/29 12:11:25;;;;;;;4.07;3.17;;;;;;;;;;5260219;28;20021;-80
2024/01/29 12:13:57;;;;;;;5.13;3.42;;;;;;;;;;5262803;28;20025;-78
2024/01/29 12:16:28;;;;;;;5.35;3.65;;;;;;;;;;5262604;28;20044;-78
2024/01/29 12:19:00;;;;;;;4.63;3.25;;;;;;;;;;5262083;28;20025;-80
2024/01/29 12:21:32;;;;;;;4.43;3.22;;;;;;;;;;5262230;28;20100;-79
2024/01/29 12:24:03;;;;;;;7.13;3.90;;;;;;;;;;5262231;28;20368;-79
2024/01/29 12:26:35;;;;;;;4.30;3.15;;;;;;;;;;5262349;28;20074;-79
2024/01/29 12:29:06;;;;;;;9.70;4.20;;;;;;;;;;5262621;28;20082;-79
2024/01/29 12:31:38;;;;;;;6.10;3.15;;;;;;;;;;5261465;28;20041;-79
2024/01/29 12:34:17;;;;;;;5.00;3.53;;;;;;;;;;5262002;28;20020;-78
2024/01/29 12:36:48;;;;;;;;;;;;;;;;;;5262703;28;20416;-79
2024/01/29 12:39:19;;;;;;;4.65;3.45;;;;;;;;;;5261479;28;19993;-78
2024/01/29 12:41:51;;;;;;;4.82;3.05;;;;;;;;;;5262617;28;20013;-79
2024/01/29 12:44:24;;;;;;;5.40;4.15;;;;;;;;;;5261505;28;20056;-80
2024/01/29 12:46:56;;;;;;;6.93;3.78;;;;;;;;;;5261455;28;20021;-80
2024/01/29 12:49:27;;;;;;;4.93;2.97;;;;;;;;;;5262218;28;20031;-79
2024/01/29 12:51:58;;;;;;;5.78;3.13;;;;;;;;;;5261848;28;20033;-80
2024/01/29 12:54:29;;;;;;;3.72;2.85;;;;;;;;;;5261159;28;20024;-79
2024/01/29 12:57:01;;;;;;;4.53;2.75;;;;;;;;;;5261757;28;20083;-79
2024/01/29 12:59:32;;;;;;;4.47;3.13;;;;;;;;;;5261149;28;20321;-79
2024/01/29 13:02:05;;;;;;;4.53;2.95;;;;;;;;;;5261706;28;20538;-79
2024/01/29 13:04:36;;;;;;;4.43;3.45;;;;;;;;;;5261811;28;20092;-79
2024/01/29 13:07:07;;;;;;;4.68;3.40;;;;;;;;;;5260835;28;20109;-79
2024/01/29 13:09:39;;;;;;;3.88;2.90;;;;;;;;;;5261480;28;20032;-79
2024/01/29 13:12:10;;;;;;;4.07;3.05;;;;;;;;;;5261651;28;20021;-79
2024/01/29 13:14:43;;;;;;;5.00;2.65;;;;;;;;;;5260787;28;20024;-79
2024/01/29 13:17:14;;;;;;;4.93;3.47;;;;;;;;;;5261530;28;20028;-79
2024/01/29 13:19:45;;;;;;;6.22;3.80;;;;;;;;;;5261530;28;20462;-79
2024/01/29 13:22:16;;;;;;;5.20;3.30;;;;;;;;;;5260465;28;20120;-79
2024/01/29 13:24:50;;;;;;;7.47;3.10;;;;;;;;;;5261635;28;20029;-79
2024/01/29 13:27:22;;;;;;;4.70;3.25;;;;;;;;;;5260437;28;20106;-79
2024/01/29 13:29:53;;;;;;;4.72;3.55;;;;;;;;;;5261627;28;20528;-79
2024/01/29 13:32:24;;;;;;;6.30;3.22;;;;;;;;;;5260896;28;20438;-79
2024/01/29 13:34:55;;;;;;;4.70;3.53;;;;;;;;;;5254248;28;20131;-78
2024/01/29 13:37:27;;;;;;;3.80;3.22;;;;;;;;;;5247578;28;20035;-78
2024/01/29 13:39:58;;;;;;;4.00;3.30;;;;;;;;;;5255517;28;20017;-79
2024/01/29 13:42:29;;;;;;;4.38;2.67;;;;;;;;;;5259188;28;20021;-80
2024/01/29 13:45:01;;;;;;;5.05;3.13;;;;;;;;;;5259314;28;20017;-79
2024/01/29 13:47:32;;;;;;;4.15;3.28;;;;;;;;;;5258130;28;20021;-78
2024/01/29 13:50:04;;;;;;;5.95;3.92;;;;;;;;;;5249158;28;20021;-78
2024/01/29 13:52:36;;;;;;;4.20;3.60;;;;;;;;;;5261942;28;20463;-79
2024/01/29 13:55:09;;;;;;;5.68;3.25;;;;;;;;;;5258620;28;20426;-80
2024/01/29 13:57:40;;;;;;;5.80;3.53;;;;;;;;;;5257355;28;20502;-78
2024/01/29 14:00:13;;;;;;;4.28;2.97;;;;;;;;;;5258161;28;20020;-79
2024/01/29 14:02:44;;;;;;;4.53;3.00;;;;;;;;;;5259270;28;20555;-81
2024/01/29 14:05:16;;;;;;;3.50;3.13;;;;;;;;;;5259435;28;20100;-79
2024/01/29 14:07:47;;;;;;;4.30;3.05;;;;;;;;;;5259485;28;20021;-75
2024/01/29 14:10:18;;;;;;;4.85;3.50;;;;;;;;;;5258771;28;20009;-80
2024/01/29 14:12:49;;;;;;;4.13;3.10;;;;;;;;;;5260883;28;20078;-80
2024/01/29 14:15:20;;;;;;;6.68;3.63;;;;;;;;;;5259640;28;20112;-79
2024/01/29 14:17:52;;;;;;;5.28;3.70;;;;;;;;;;5260130;28;20025;-79
2024/01/29 14:20:23;;;;;;;4.65;2.83;;;;;;;;;;5260064;28;20044;-79
2024/01/29 14:22:57;;;;;;;5.60;3.78;;;;;;;;;;5260912;28;20032;-78
2024/01/29 14:25:28;;;;;;;4.50;3.22;;;;;;;;;;5260484;28;20017;-78
2024/01/29 14:28:00;;;;;;;4.85;3.88;;;;;;;;;;5261823;28;20017;-79
2024/01/29 14:30:31;;;;;;;6.45;4.00;;;;;;;;;;5261367;28;20131;-79
2024/01/29 14:33:02;;;;;;;7.28;4.65;;;;;;;;;;5260798;28;20067;-79
2024/01/29 14:35:34;;;;;;;7.47;4.50;;;;;;;;;;5260562;28;20025;-79
2024/01/29 14:38:08;;;;;;;6.00;4.00;;;;;;;;;;5260034;28;20017;-78
2024/01/29 14:40:40;;;;;;;6.65;4.57;;;;;;;;;;5261921;28;20547;-78
2024/01/29 14:43:11;;;;;;;5.22;4.05;;;;;;;;;;5260723;28;20032;-78
2024/01/29 14:45:42;;;;;;;6.65;4.00;;;;;;;;;;5260971;28;20052;-78
2024/01/29 14:48:13;;;;;;;4.38;3.05;;;;;;;;;;5261149;28;20033;-79
2024/01/29 14:50:44;;;;;;;6.20;3.67;;;;;;;;;;5260457;28;20325;-78
2024/01/29 14:53:15;;;;;;;5.57;3.70;;;;;;;;;;5259753;28;20480;-79
2024/01/29 14:55:47;;;;;;;4.97;4.30;;;;;;;;;;5260247;28;20056;-79
2024/01/29 14:58:18;;;;;;;5.65;4.30;;;;;;;;;;5260660;28;20036;-79
2024/01/29 15:00:49;;;;;;;5.93;4.78;;;;;;;;;;5261765;28;20055;-78
2024/01/29 15:03:20;;;;;;;5.28;4.00;;;;;;;;;;5263989;28;20036;-78
2024/01/29 15:05:53;;;;;;;4.43;3.85;;;;;;;;;;5263289;28;20021;-78
2024/01/29 15:08:24;;;;;;;6.07;3.58;;;;;;;;;;5263329;28;20150;-78